createdAt,value
2023-06-08T00:00:39.894Z,15.64
2023-06-08T00:03:27.894Z,15.64
2023-06-08T00:06:29.939Z,15.64
2023-06-08T00:09:32.733Z,15.62
2023-06-08T00:12:26.729Z,15.55
2023-06-08T00:15:13.800Z,15.48
2023-06-08T00:18:17.116Z,15.45
2023-06-08T00:21:20.784Z,15.46
2023-06-08T00:24:21.788Z,15.50
2023-06-08T00:27:22.773Z,15.54
2023-06-08T00:30:23.796Z,15.55
2023-06-08T00:33:24.794Z,15.54
2023-06-08T00:36:26.810Z,15.52
2023-06-08T00:39:27.843Z,15.48
2023-06-08T00:42:29.761Z,15.45
2023-06-08T00:45:30.864Z,15.44
2023-06-08T00:48:31.863Z,15.41
2023-06-08T00:51:32.809Z,15.37
2023-06-08T00:54:33.904Z,15.33
2023-06-08T00:57:35.993Z,15.28
2023-06-08T01:00:39.876Z,15.16
2023-06-08T01:03:43.821Z,15.09
2023-06-08T01:06:56.907Z,15.03
2023-06-08T01:10:07.029Z,15.01
2023-06-08T01:13:36.918Z,15.00
2023-06-08T01:16:24.901Z,15.01
2023-06-08T01:19:25.879Z,15.02
2023-06-08T01:22:41.853Z,15.02
2023-06-08T01:25:46.906Z,15.02
2023-06-08T01:28:47.925Z,15.04
2023-06-08T01:31:48.925Z,15.04
2023-06-08T01:34:49.959Z,15.06
2023-06-08T01:37:58.934Z,15.06
2023-06-08T01:40:59.899Z,15.02
2023-06-08T01:44:04.132Z,15.01
2023-06-08T01:47:12.929Z,15.01
2023-06-08T01:50:13.879Z,15.00
2023-06-08T01:53:15.941Z,15.01
2023-06-08T01:56:10.051Z,15.01
2023-06-08T01:59:12.928Z,15.00
2023-06-08T02:02:13.939Z,15.00
2023-06-08T02:05:14.956Z,15.00
2023-06-08T02:08:15.983Z,15.00
2023-06-08T02:11:17.985Z,15.02
2023-06-08T02:14:18.972Z,15.06
2023-06-08T02:17:20.964Z,15.10
2023-06-08T02:20:22.951Z,15.14
2023-06-08T02:23:23.977Z,15.15
2023-06-08T02:26:24.989Z,15.19
2023-06-08T02:29:27.975Z,15.23
2023-06-08T02:32:29.057Z,15.27
2023-06-08T02:35:30.978Z,15.32
2023-06-08T02:38:32.033Z,15.37
2023-06-08T02:41:34.024Z,15.40
2023-06-08T02:44:35.052Z,15.45
2023-06-08T02:47:36.189Z,15.49
2023-06-08T02:50:37.070Z,15.53
2023-06-08T02:53:39.016Z,15.57
2023-06-08T02:56:41.033Z,15.60
2023-06-08T02:59:44.020Z,15.63
2023-06-08T03:02:46.091Z,15.67
2023-06-08T03:05:49.093Z,15.69
2023-06-08T03:09:04.251Z,15.72
2023-06-08T03:12:06.056Z,15.77
2023-06-08T03:15:08.407Z,15.80
2023-06-08T03:18:09.127Z,15.82
2023-06-08T03:21:11.094Z,15.84
2023-06-08T03:24:12.152Z,15.85
2023-06-08T03:27:15.078Z,15.87
2023-06-08T03:30:18.121Z,15.88
2023-06-08T03:33:20.070Z,15.89
2023-06-08T03:36:26.085Z,15.88
2023-06-08T03:39:28.122Z,15.90
2023-06-08T03:42:29.125Z,15.93
2023-06-08T03:45:30.093Z,15.94
2023-06-08T03:48:33.126Z,15.96
2023-06-08T03:51:35.118Z,15.98
2023-06-08T03:54:37.236Z,15.97
2023-06-08T03:57:38.148Z,15.98
2023-06-08T04:00:40.129Z,16.00
2023-06-08T04:03:42.243Z,16.00
2023-06-08T04:06:46.131Z,16.01
2023-06-08T04:09:48.136Z,16.05
2023-06-08T04:12:49.176Z,16.08
2023-06-08T04:15:50.338Z,16.10
2023-06-08T04:18:51.137Z,16.15
2023-06-08T04:21:53.605Z,16.18
2023-06-08T04:24:55.176Z,16.22
2023-06-08T04:27:56.295Z,16.25
2023-06-08T04:30:57.284Z,16.26
2023-06-08T04:33:59.196Z,16.25
2023-06-08T04:37:02.429Z,16.31
2023-06-08T04:39:57.215Z,16.34
2023-06-08T04:42:47.205Z,16.35
2023-06-08T04:45:48.227Z,16.33
2023-06-08T04:48:51.245Z,16.39
2023-06-08T04:51:54.197Z,16.55
2023-06-08T04:55:00.217Z,16.73
2023-06-08T04:58:01.233Z,16.92
2023-06-08T05:01:02.340Z,17.07
2023-06-08T05:04:03.311Z,17.16
2023-06-08T05:07:04.279Z,17.27
2023-06-08T05:10:05.681Z,17.37
2023-06-08T05:13:07.300Z,17.46
2023-06-08T05:16:08.247Z,17.56
2023-06-08T05:19:15.043Z,17.65
2023-06-08T05:22:16.244Z,17.74
2023-06-08T05:25:17.332Z,17.88
2023-06-08T05:28:21.303Z,18.00
2023-06-08T05:31:22.342Z,18.10
2023-06-08T05:34:23.374Z,18.14
2023-06-08T05:37:24.335Z,18.15
2023-06-08T05:40:18.430Z,18.13
2023-06-08T05:43:22.360Z,18.10
2023-06-08T05:46:23.347Z,18.05
2023-06-08T05:49:26.449Z,17.99
2023-06-08T05:52:30.352Z,17.93
2023-06-08T05:55:31.339Z,17.89
2023-06-08T05:58:48.204Z,17.86
2023-06-08T06:01:51.368Z,17.89
2023-06-08T06:04:52.469Z,17.96
2023-06-08T06:07:54.378Z,18.00
2023-06-08T06:10:55.399Z,18.06
2023-06-08T06:13:57.680Z,18.14
2023-06-08T06:17:06.875Z,18.31
2023-06-08T06:20:11.396Z,18.54
2023-06-08T06:23:12.441Z,18.78
2023-06-08T06:26:14.467Z,19.00
2023-06-08T06:29:09.404Z,19.19
2023-06-08T06:31:50.727Z,19.34
2023-06-08T06:34:46.736Z,19.41
2023-06-08T06:37:42.709Z,19.55
2023-06-08T06:40:43.558Z,19.65
2023-06-08T06:43:44.429Z,19.78
2023-06-08T06:46:49.499Z,19.89
2023-06-08T06:49:51.489Z,20.11
2023-06-08T06:52:52.541Z,20.50
2023-06-08T06:56:06.045Z,20.87
2023-06-08T06:59:18.585Z,21.25
2023-06-08T07:02:23.935Z,21.49
2023-06-08T07:05:27.603Z,21.63
2023-06-08T07:08:28.586Z,21.73
2023-06-08T07:11:31.628Z,21.75
2023-06-08T07:14:33.678Z,21.58
2023-06-08T07:17:37.723Z,21.63
2023-06-08T07:20:40.880Z,21.73
2023-06-08T07:24:07.179Z,21.74
2023-06-08T07:27:06.597Z,21.78
2023-06-08T07:30:20.557Z,21.77
2023-06-08T07:33:45.061Z,21.60
2023-06-08T07:37:14.421Z,21.47
2023-06-08T07:40:26.044Z,21.45
2023-06-08T07:43:36.887Z,21.45
2023-06-08T07:46:39.692Z,21.34
2023-06-08T07:49:49.217Z,21.15
2023-06-08T07:52:53.764Z,20.87
2023-06-08T07:55:57.549Z,20.67
2023-06-08T07:59:00.492Z,20.53
2023-06-08T08:02:05.003Z,20.45
2023-06-08T08:05:05.725Z,20.43
2023-06-08T08:08:11.626Z,20.45
2023-06-08T08:11:15.743Z,20.54
2023-06-08T08:14:26.789Z,20.61
2023-06-08T08:17:27.768Z,20.56
2023-06-08T08:20:28.606Z,20.62
2023-06-08T08:23:29.666Z,20.69
2023-06-08T08:26:36.859Z,20.80
2023-06-08T08:29:38.672Z,20.82
2023-06-08T08:32:40.648Z,20.91
2023-06-08T08:35:43.655Z,20.93
2023-06-08T09:33:54.698Z,21.95
2023-06-08T09:37:00.223Z,22.05
2023-06-08T09:40:03.658Z,22.16
2023-06-08T09:43:08.072Z,22.22
2023-06-08T09:46:14.656Z,22.23
2023-06-08T09:49:26.166Z,22.29
2023-06-08T09:52:30.031Z,22.36
2023-06-08T09:55:33.415Z,22.37
2023-06-08T09:58:36.306Z,22.44
2023-06-08T10:02:00.388Z,22.48
2023-06-08T10:05:06.490Z,22.65
2023-06-08T10:08:10.106Z,22.93
2023-06-08T10:11:11.114Z,23.19
2023-06-08T10:14:13.122Z,23.49
2023-06-08T10:17:15.394Z,23.70
2023-06-08T10:20:16.099Z,23.85
2023-06-08T10:23:18.209Z,23.99
2023-06-08T10:26:19.198Z,24.07
2023-06-08T10:29:22.818Z,24.05
2023-06-08T10:32:25.347Z,24.06
2023-06-08T10:35:27.282Z,24.10
2023-06-08T10:38:29.234Z,24.29
2023-06-08T10:41:58.142Z,24.59
2023-06-08T10:45:13.287Z,24.99
2023-06-08T10:48:22.144Z,25.13
2023-06-08T10:51:26.231Z,24.91
2023-06-08T10:54:38.372Z,24.79
2023-06-08T10:58:05.607Z,24.76
2023-06-08T11:01:19.117Z,24.95
2023-06-08T11:04:37.708Z,25.19
2023-06-08T11:07:46.206Z,25.04
2023-06-08T11:10:49.479Z,25.21
2023-06-08T11:13:50.550Z,25.48
2023-06-08T11:16:51.175Z,25.62
2023-06-08T11:19:52.388Z,25.49
2023-06-08T11:22:53.178Z,25.24
2023-06-08T11:25:55.413Z,24.90
2023-06-08T11:28:58.184Z,24.83
2023-06-08T11:32:51.825Z,24.93
2023-06-08T11:35:51.692Z,24.80
2023-06-08T11:38:52.672Z,24.71
2023-06-08T11:41:54.695Z,24.79
2023-06-08T11:44:55.697Z,24.76
2023-06-08T11:48:13.987Z,24.71
2023-06-08T11:51:16.699Z,24.74
2023-06-08T11:54:16.912Z,24.84
2023-06-08T11:57:19.735Z,24.89
2023-06-08T12:00:20.935Z,25.14
2023-06-08T12:03:17.420Z,25.62
2023-06-08T12:06:18.105Z,26.04
2023-06-08T12:09:20.096Z,26.35
2023-06-08T12:12:23.833Z,26.76
2023-06-08T12:15:28.829Z,27.00
2023-06-08T12:18:29.974Z,27.10
2023-06-08T12:21:31.984Z,27.18
2023-06-08T12:24:31.775Z,27.02
2023-06-08T12:27:32.785Z,26.90
2023-06-08T12:30:34.968Z,26.89
2023-06-08T12:33:34.920Z,26.81
2023-06-08T12:36:34.891Z,26.72
2023-06-08T12:39:35.022Z,26.77
2023-06-08T12:42:42.317Z,26.94
2023-06-08T12:45:36.356Z,26.89
2023-06-08T12:48:37.827Z,26.73
2023-06-08T12:51:37.968Z,26.42
2023-06-08T12:54:38.222Z,26.35
2023-06-08T12:57:38.829Z,26.42
2023-06-08T13:00:39.910Z,26.54
2023-06-08T13:03:41.146Z,26.47
2023-06-08T13:06:43.154Z,26.37
2023-06-08T13:09:44.870Z,26.43
2023-06-08T13:12:47.097Z,26.60
2023-06-08T13:15:46.975Z,26.75
2023-06-08T13:18:48.929Z,26.77
2023-06-08T13:21:49.918Z,26.69
2023-06-08T13:24:51.013Z,26.61
2023-06-08T13:29:50.566Z,26.29
2023-06-08T13:32:53.215Z,25.93
2023-06-08T13:35:54.087Z,25.73
2023-06-08T13:39:09.001Z,25.53
2023-06-08T13:42:14.205Z,25.37
2023-06-08T13:45:20.473Z,25.24
2023-06-08T13:51:39.503Z,25.24
2023-06-08T13:51:42.178Z,25.17
2023-06-08T13:54:44.141Z,25.17
2023-06-08T13:57:45.131Z,25.21
2023-06-08T14:00:46.260Z,25.19
2023-06-08T14:03:47.276Z,25.06
2023-06-08T14:06:48.341Z,25.01
2023-06-08T14:09:49.522Z,24.92
2023-06-08T14:12:51.182Z,24.71
2023-06-08T14:15:52.331Z,24.58
2023-06-08T14:18:53.152Z,24.59
2023-06-08T14:21:54.260Z,24.57
2023-06-08T14:24:55.159Z,24.56
2023-06-08T14:27:57.601Z,24.60
2023-06-08T14:30:58.380Z,24.73
2023-06-08T14:33:59.194Z,24.84
2023-06-08T14:37:03.486Z,25.00
2023-06-08T14:40:04.559Z,25.13
2023-06-08T14:43:12.247Z,25.06
2023-06-08T14:46:14.193Z,25.02
2023-06-08T14:49:08.372Z,25.02
2023-06-08T14:52:10.411Z,25.09
2023-06-08T14:55:14.416Z,25.10
2023-06-08T14:58:15.363Z,25.00
2023-06-08T15:01:16.281Z,24.96
2023-06-08T15:04:19.513Z,24.87
2023-06-08T15:07:20.224Z,24.76
2023-06-08T15:10:24.307Z,24.59
2023-06-08T15:13:25.226Z,24.37
2023-06-08T15:16:26.254Z,24.24
2023-06-08T15:19:27.264Z,24.15
2023-06-08T15:22:28.237Z,24.08
2023-06-08T15:25:29.263Z,24.00
2023-06-08T15:28:30.381Z,23.88
2023-06-08T15:31:31.430Z,23.89
2023-06-08T15:34:32.294Z,23.89
2023-06-08T15:37:43.281Z,23.90
2023-06-08T15:40:44.386Z,23.92
2023-06-08T15:43:45.340Z,23.90
2023-06-08T15:46:47.393Z,23.88
2023-06-08T15:49:50.325Z,23.90
2023-06-08T15:52:53.301Z,23.81
2023-06-08T15:55:55.187Z,23.67
2023-06-08T15:58:49.389Z,23.51
2023-06-08T16:01:52.266Z,23.37
2023-06-08T16:04:53.374Z,23.24
2023-06-08T16:07:54.344Z,23.09
2023-06-08T16:10:56.752Z,22.95
2023-06-08T16:14:00.389Z,22.83
2023-06-08T16:17:01.412Z,22.67
2023-06-08T16:20:02.385Z,22.56
2023-06-08T16:23:03.425Z,22.47
2023-06-08T16:26:05.409Z,22.45
2023-06-08T16:29:07.628Z,22.43
2023-06-08T16:32:02.177Z,22.36
2023-06-08T16:34:56.573Z,22.28
2023-06-08T16:37:58.409Z,22.22
2023-06-08T16:40:59.456Z,22.15
2023-06-08T16:44:01.457Z,22.09
2023-06-08T16:47:02.444Z,22.03
2023-06-08T16:50:03.457Z,21.97
2023-06-08T16:53:05.564Z,21.91
2023-06-08T16:56:06.593Z,21.84
2023-06-08T16:59:07.431Z,21.78
2023-06-08T17:02:12.037Z,21.73
2023-06-08T17:05:08.642Z,21.69
2023-06-08T17:08:09.408Z,21.64
2023-06-08T17:11:11.564Z,21.60
2023-06-08T17:14:14.499Z,21.59
2023-06-08T17:17:15.495Z,21.57
2023-06-08T17:20:16.528Z,21.53
2023-06-08T17:26:58.211Z,21.44
2023-06-08T17:30:07.611Z,21.37
2023-06-08T17:33:15.542Z,21.33
2023-06-08T17:36:20.948Z,21.29
2023-06-08T17:42:54.450Z,21.23
2023-06-08T17:53:20.969Z,21.05
2023-06-08T18:00:01.086Z,20.93
2023-06-08T18:03:02.855Z,20.88
2023-06-08T18:06:19.699Z,20.84
2023-06-08T18:09:24.903Z,20.78
2023-06-08T18:12:25.623Z,20.73
2023-06-08T18:15:29.619Z,20.69
2023-06-08T18:18:30.665Z,20.65
2023-06-08T18:21:32.928Z,20.62
2023-06-08T18:24:34.581Z,20.59
2023-06-08T18:27:35.595Z,20.55
2023-06-08T18:30:36.666Z,20.50
2023-06-08T18:33:37.600Z,20.47
2023-06-08T18:36:38.669Z,20.43
2023-06-08T18:39:58.724Z,20.39
2023-06-08T18:43:02.630Z,20.35
2023-06-08T18:46:05.078Z,20.31
2023-06-08T18:49:13.006Z,20.27
2023-06-08T18:52:14.658Z,20.22
2023-06-08T18:55:16.634Z,20.17
2023-06-08T18:58:24.695Z,20.12
2023-06-08T19:01:19.884Z,20.08
2023-06-08T19:04:01.235Z,20.06
2023-06-08T19:06:47.796Z,20.04
2023-06-08T19:09:30.773Z,20.03
2023-06-08T19:12:18.742Z,19.99
2023-06-08T19:14:59.906Z,19.95
2023-06-08T19:17:46.782Z,19.92
2023-06-08T19:20:35.707Z,19.88
2023-06-08T19:23:36.738Z,19.82
2023-06-08T19:26:39.753Z,19.76
2023-06-08T19:29:41.077Z,19.72
2023-06-08T19:32:43.864Z,19.68
2023-06-08T19:35:45.019Z,19.64
2023-06-08T19:38:47.158Z,19.61
2023-06-08T19:41:51.233Z,19.59
2023-06-08T19:44:53.728Z,19.57
2023-06-08T19:47:54.955Z,19.54
2023-06-08T19:50:58.519Z,19.53
2023-06-08T19:53:59.741Z,19.50
2023-06-08T19:57:02.774Z,19.48
2023-06-08T20:00:03.764Z,19.43
2023-06-08T20:03:04.853Z,19.42
2023-06-08T20:06:05.791Z,19.40
2023-06-08T20:09:06.908Z,19.37
2023-06-08T20:12:12.772Z,19.35
2023-06-08T20:15:13.807Z,19.31
2023-06-08T20:18:14.795Z,19.27
2023-06-08T20:21:15.792Z,19.25
2023-06-08T20:24:17.024Z,19.23
2023-06-08T20:27:17.811Z,19.20
2023-06-08T20:30:20.392Z,19.19
2023-06-08T20:33:20.946Z,19.16
2023-06-08T20:36:17.506Z,19.11
2023-06-08T20:39:04.877Z,19.09
2023-06-08T20:42:05.915Z,19.07
2023-06-08T20:45:07.102Z,19.05
2023-06-08T20:48:07.933Z,19.03
2023-06-08T20:51:08.877Z,18.98
2023-06-08T20:54:10.848Z,18.94
2023-06-08T20:57:18.930Z,18.91
2023-06-08T21:00:19.887Z,18.88
2023-06-08T21:03:22.931Z,18.86
2023-06-08T21:06:25.861Z,18.85
2023-06-08T21:38:12.422Z,18.67
2023-06-08T21:41:15.367Z,18.66
2023-06-08T21:44:15.479Z,18.63
2023-06-08T21:47:15.398Z,18.61
2023-06-08T21:50:20.647Z,18.58
2023-06-08T21:53:20.419Z,18.56
2023-06-08T21:56:20.649Z,18.55
2023-06-08T21:59:20.518Z,18.52
2023-06-08T22:02:20.463Z,18.48
2023-06-08T22:05:23.005Z,18.44
2023-06-08T22:08:24.470Z,18.41
2023-06-08T22:11:24.441Z,18.39
2023-06-08T22:14:24.452Z,18.37
2023-06-08T22:17:25.470Z,18.34
2023-06-08T22:20:25.519Z,18.31
2023-06-08T22:23:25.448Z,18.30
2023-06-08T22:26:25.504Z,18.29
2023-06-08T22:29:26.849Z,18.28
2023-06-08T22:32:26.502Z,18.27
2023-06-08T22:35:26.502Z,18.25
2023-06-08T22:38:20.675Z,18.24
2023-06-08T22:41:21.523Z,18.22
2023-06-08T22:44:21.494Z,18.19
2023-06-08T22:47:21.624Z,18.15
2023-06-08T22:50:21.610Z,18.14
2023-06-08T22:53:28.512Z,18.12
2023-06-08T22:56:29.586Z,18.10
2023-06-08T22:59:29.539Z,18.07
2023-06-08T23:02:30.576Z,18.03
2023-06-08T23:05:30.529Z,17.99
2023-06-08T23:08:31.820Z,17.95
2023-06-08T23:11:32.559Z,17.93
2023-06-08T23:14:33.646Z,17.90
2023-06-08T23:17:33.621Z,17.88
2023-06-08T23:20:33.633Z,17.85
2023-06-08T23:23:39.614Z,17.84
2023-06-08T23:26:39.602Z,17.82
2023-06-08T23:29:39.589Z,17.78
2023-06-08T23:32:39.705Z,17.75
2023-06-08T23:35:39.692Z,17.74
2023-06-08T23:38:42.639Z,17.72
2023-06-08T23:41:42.644Z,17.70
2023-06-08T23:44:42.635Z,17.68
2023-06-08T23:47:44.717Z,17.65
2023-06-08T23:50:44.578Z,17.62
2023-06-08T23:53:44.599Z,17.61
2023-06-08T23:56:44.658Z,17.59
2023-06-08T23:59:44.648Z,17.56
